Time;durP1;ratioP1;P1;durP2;ratioP2;P2;SDS_P1;SDS_P2;PMS_P1;PMS_P2;Temp;Humidity;BMP_temperature;BMP_pressure;BME280_temperature;BME280_humidity;BME280_pressure;Samples;Min_cycle;Max_cycle;Signal;HPM_P1;HPM_P2
2021/06/05 00:01:37;;;;;;;26.13;16.08;;;15.30;99.90;;;;;;5114343;28;20536;-84
2021/06/05 00:04:04;;;;;;;27.20;16.80;;;15.40;99.90;;;;;;5116074;28;20248;-84
2021/06/05 00:06:29;;;;;;;29.48;16.63;;;15.30;99.90;;;;;;5116158;28;20177;-83
2021/06/05 00:08:56;;;;;;;27.92;16.30;;;15.30;99.90;;;;;;5098064;28;20182;-84
2021/06/05 00:11:26;;;;;;;27.75;16.33;;;15.30;99.90;;;;;;5115330;28;20287;-85
2021/06/05 00:13:56;;;;;;;26.58;16.75;;;15.30;99.90;;;;;;5115759;27;20154;-84
2021/06/05 00:16:26;;;;;;;27.27;16.20;;;15.20;99.90;;;;;;5113984;28;20197;-84
2021/06/05 00:18:52;;;;;;;29.33;16.25;;;15.20;99.90;;;;;;5115700;28;20170;-84
2021/06/05 00:21:20;;;;;;;26.80;15.55;;;15.20;99.90;;;;;;5114154;28;20178;-85
2021/06/05 00:23:46;;;;;;;23.65;13.82;;;15.20;99.90;;;;;;5114217;28;20641;-84
2021/06/05 00:26:12;;;;;;;23.33;16.10;;;15.20;99.90;;;;;;5115246;28;20211;-84
2021/06/05 00:28:38;;;;;;;29.65;15.18;;;;;;;;;;5096960;28;20186;-84
2021/06/05 00:31:04;;;;;;;27.02;15.95;;;15.10;99.90;;;;;;5115099;28;20181;-86
2021/06/05 00:33:31;;;;;;;26.17;16.15;;;15.20;99.90;;;;;;5115283;28;20231;-85
2021/06/05 00:35:57;;;;;;;27.30;16.38;;;15.20;99.90;;;;;;5114042;28;20213;-84
2021/06/05 00:38:23;;;;;;;27.85;15.20;;;15.20;99.90;;;;;;5114868;28;20622;-84
2021/06/05 00:40:53;;;;;;;20.85;14.02;;;15.20;99.90;;;;;;5113709;28;20186;-84
2021/06/05 00:43:24;;;;;;;23.42;14.75;;;15.20;99.90;;;;;;5113626;28;20231;-85
2021/06/05 00:45:50;;;;;;;24.13;14.30;;;15.20;99.90;;;;;;5115113;28;20208;-84
2021/06/05 00:48:17;;;;;;;21.50;14.02;;;15.20;99.90;;;;;;5113389;28;20608;-84
2021/06/05 00:50:45;;;;;;;29.20;13.60;;;15.20;99.90;;;;;;5112952;28;20178;-84
2021/06/05 00:53:12;;;;;;;26.20;14.40;;;15.10;99.90;;;;;;5114602;27;20166;-84
2021/06/05 00:55:42;;;;;;;22.65;13.70;;;15.10;99.90;;;;;;5114905;27;20254;-84
2021/06/05 00:58:07;;;;;;;23.58;13.45;;;15.10;99.90;;;;;;5114637;28;20173;-85
2021/06/05 01:00:40;;;;;;;28.10;14.90;;;15.10;99.90;;;;;;5096544;28;20188;-84
2021/06/05 01:03:06;;;;;;;24.38;13.70;;;15.10;99.90;;;;;;5114768;28;20166;-84
2021/06/05 01:05:35;;;;;;;25.50;14.30;;;15.00;99.90;;;;;;5114930;28;20269;-84
2021/06/05 01:08:23;;;;;;;20.85;13.48;;;15.00;99.90;;;;;;5113189;28;20182;-84
2021/06/05 01:10:55;;;;;;;24.67;13.60;;;15.00;99.90;;;;;;5113333;28;20170;-85
2021/06/05 01:13:37;;;;;;;25.95;14.32;;;15.00;99.90;;;;;;5114474;28;20186;-84
2021/06/05 01:16:07;;;;;;;22.05;13.80;;;15.00;99.90;;;;;;5114149;28;20189;-84
2021/06/05 01:18:43;;;;;;;25.13;14.13;;;15.00;99.90;;;;;;5113126;28;20173;-83
2021/06/05 01:21:27;;;;;;;24.10;13.80;;;15.00;99.90;;;;;;5112553;28;20203;-85
2021/06/05 01:24:17;;;;;;;26.15;13.73;;;15.00;99.90;;;;;;5113186;28;20185;-83
2021/06/05 01:26:51;;;;;;;25.95;13.75;;;15.00;99.90;;;;;;5113119;28;20284;-83
2021/06/05 01:29:25;;;;;;;20.80;13.63;;;15.00;99.90;;;;;;5112627;28;20176;-83
2021/06/05 01:31:59;;;;;;;25.45;14.98;;;15.00;99.90;;;;;;5114224;28;20162;-83
2021/06/05 01:34:28;;;;;;;22.15;14.38;;;14.90;99.90;;;;;;5113804;28;20166;-83
2021/06/05 01:36:55;;;;;;;25.23;15.43;;;14.90;99.90;;;;;;5114221;28;20658;-82
2021/06/05 01:39:29;;;;;;;24.33;13.38;;;14.80;99.90;;;;;;5112569;28;20182;-83
2021/06/05 01:41:58;;;;;;;23.40;13.88;;;14.80;99.90;;;;;;5113913;28;20215;-83
2021/06/05 01:44:26;;;;;;;25.75;15.45;;;14.70;99.90;;;;;;5112352;28;20180;-83
2021/06/05 01:46:52;;;;;;;24.00;14.48;;;14.70;99.90;;;;;;5114030;28;20178;-83
2021/06/05 01:49:19;;;;;;;26.50;14.52;;;14.60;99.90;;;;;;5095513;28;20196;-83
2021/06/05 01:51:58;;;;;;;26.00;15.23;;;14.70;99.90;;;;;;5113924;28;20188;-83
2021/06/05 01:54:35;;;;;;;29.35;15.25;;;14.60;99.90;;;;;;5112533;28;20181;-83
2021/06/05 01:57:06;;;;;;;28.27;15.75;;;14.50;99.90;;;;;;5113894;28;20204;-83
2021/06/05 01:59:32;;;;;;;32.55;15.77;;;14.50;99.90;;;;;;5113139;28;20960;-82
2021/06/05 02:01:58;;;;;;;33.15;15.98;;;14.40;99.90;;;;;;5113842;28;20170;-83
2021/06/05 02:04:24;;;;;;;28.80;16.67;;;14.40;99.90;;;;;;5112588;28;20227;-83
2021/06/05 02:06:53;;;;;;;25.25;16.08;;;14.30;99.90;;;;;;5095752;28;20185;-82
2021/06/05 02:09:21;;;;;;;33.22;15.77;;;14.30;99.90;;;;;;5113433;28;20169;-83
2021/06/05 02:11:51;;;;;;;30.35;15.75;;;14.30;99.90;;;;;;5113532;28;20267;-82
2021/06/05 02:14:23;;;;;;;25.63;14.88;;;14.20;99.90;;;;;;5112386;28;20173;-83
2021/06/05 02:16:51;;;;;;;24.20;15.13;;;14.20;99.90;;;;;;5113699;28;20186;-82
2021/06/05 02:19:36;;;;;;;23.75;14.20;;;14.20;99.90;;;;;;5113168;28;20256;-83
2021/06/05 02:22:06;;;;;;;30.02;16.00;;;14.20;99.90;;;;;;5112621;28;20201;-83
2021/06/05 02:24:43;;;;;;;31.70;15.77;;;14.10;99.90;;;;;;5112009;28;20201;-83
2021/06/05 02:27:10;;;;;;;29.83;15.98;;;14.00;99.90;;;;;;5112368;28;20644;-83
2021/06/05 02:29:39;;;;;;;23.92;13.80;;;14.00;99.90;;;;;;5111813;28;20261;-83
2021/06/05 02:32:08;;;;;;;24.30;14.05;;;13.90;99.90;;;;;;5113556;28;20630;-83
2021/06/05 02:34:34;;;;;;;23.48;14.13;;;13.80;99.90;;;;;;5111972;28;20216;-83
2021/06/05 02:37:05;;;;;;;26.58;14.25;;;13.80;99.90;;;;;;5112003;28;20673;-83
2021/06/05 02:39:31;;;;;;;23.60;14.40;;;13.80;99.90;;;;;;5111886;28;20275;-83
2021/06/05 02:41:57;;;;;;;26.80;13.77;;;13.80;99.90;;;;;;5113452;28;20174;-82
2021/06/05 02:44:27;;;;;;;25.80;14.65;;;13.80;99.90;;;;;;5113162;28;20178;-82
2021/06/05 02:46:54;;;;;;;23.38;13.98;;;13.80;99.90;;;;;;5113666;28;20173;-82
2021/06/05 02:49:20;;;;;;;26.00;13.38;;;13.80;99.90;;;;;;5112906;28;20234;-82
2021/06/05 02:51:48;;;;;;;23.02;13.68;;;13.80;99.90;;;;;;5112027;28;20622;-82
2021/06/05 02:54:14;;;;;;;22.88;12.85;;;13.80;99.90;;;;;;5113380;28;20178;-83
2021/06/05 02:56:40;;;;;;;42.42;14.85;;;13.80;99.90;;;;;;5112281;28;20194;-84
2021/06/05 02:59:07;;;;;;;29.25;14.13;;;13.80;99.90;;;;;;5112153;28;20193;-82
2021/06/05 03:01:33;;;;;;;41.10;14.90;;;13.80;99.90;;;;;;5113024;28;20177;-82
2021/06/05 03:04:00;;;;;;;60.47;15.82;;;13.80;99.90;;;;;;5113217;28;20174;-82
2021/06/05 03:06:27;;;;;;;55.90;16.48;;;13.90;99.90;;;;;;5111676;28;20181;-82
2021/06/05 03:08:53;;;;;;;50.78;15.63;;;12.20;99.90;;;;;;5112081;28;20276;-82
2021/06/05 03:11:21;;;;;;;58.03;16.48;;;13.90;99.90;;;;;;5111366;28;20238;-84
2021/06/05 03:13:48;;;;;;;52.17;14.85;;;13.90;99.90;;;;;;5113360;28;20212;-83
2021/06/05 03:16:15;;;;;;;37.72;14.13;;;14.00;99.90;;;;;;5098427;28;20202;-83
2021/06/05 03:18:41;;;;;;;39.20;14.25;;;14.00;99.90;;;;;;5115126;28;20200;-82
2021/06/05 03:21:11;;;;;;;40.95;14.50;;;14.00;99.90;;;;;;5115331;28;20178;-84
2021/06/05 03:23:38;;;;;;;27.15;13.30;;;14.10;99.90;;;;;;5115107;28;20264;-83
2021/06/05 03:26:06;;;;;;;29.27;12.55;;;14.20;99.90;;;;;;5116793;28;20216;-83
2021/06/05 03:28:33;;;;;;;24.30;13.48;;;14.10;99.90;;;;;;5115885;28;20212;-84
2021/06/05 03:31:00;;;;;;;22.13;11.77;;;14.20;99.90;;;;;;5116381;28;20204;-84
2021/06/05 03:33:26;;;;;;;25.50;13.15;;;14.30;99.90;;;;;;5098413;28;20185;-85
2021/06/05 03:35:53;;;;;;;22.25;12.35;;;14.30;99.90;;;;;;5115050;28;20574;-85
2021/06/05 03:38:21;;;;;;;25.70;13.15;;;14.40;99.90;;;;;;5116078;28;20184;-85
2021/06/05 03:40:47;;;;;;;22.10;12.07;;;14.50;99.90;;;;;;5114960;28;20683;-84
2021/06/05 03:43:13;;;;;;;20.33;12.57;;;14.50;99.90;;;;;;5115983;28;20174;-84
2021/06/05 03:45:39;;;;;;;19.25;11.82;;;14.60;99.90;;;;;;5116163;28;20638;-84
2021/06/05 03:48:05;;;;;;;18.85;11.27;;;14.80;99.90;;;;;;5116057;28;20260;-84
2021/06/05 03:50:35;;;;;;;18.40;11.45;;;14.70;99.90;;;;;;5114516;28;20205;-84
2021/06/05 03:53:02;;;;;;;19.98;11.73;;;14.80;99.90;;;;;;5115064;28;20170;-83
2021/06/05 03:55:27;;;;;;;16.98;11.68;;;14.90;99.90;;;;;;5115069;28;20212;-84
2021/06/05 03:57:58;;;;;;;19.35;11.52;;;15.00;99.90;;;;;;5115993;28;20564;-84
2021/06/05 04:00:36;;;;;;;27.35;11.98;;;15.00;99.90;;;;;;5114601;28;20166;-86
2021/06/05 04:03:03;;;;;;;23.33;12.00;;;15.10;99.90;;;;;;5114746;28;20177;-86
2021/06/05 04:05:29;;;;;;;20.17;11.27;;;15.20;99.90;;;;;;5114180;28;20265;-85
2021/06/05 04:07:55;;;;;;;16.95;11.05;;;15.30;99.90;;;;;;5115840;28;20174;-85
2021/06/05 04:10:23;;;;;;;17.13;11.00;;;15.30;99.90;;;;;;5131958;27;20279;-84
2021/06/05 04:12:49;;;;;;;19.65;11.07;;;15.30;99.90;;;;;;5113891;28;20229;-84
2021/06/05 04:15:17;;;;;;;19.45;10.68;;;15.40;99.90;;;;;;5115353;28;20205;-85
2021/06/05 04:17:43;;;;;;;17.48;10.10;;;15.40;99.90;;;;;;5114044;28;20231;-84
2021/06/05 04:20:12;;;;;;;16.30;10.82;;;15.50;99.90;;;;;;5097322;28;20574;-84
2021/06/05 04:22:37;;;;;;;20.77;12.18;;;15.60;99.90;;;;;;5113757;28;20174;-84
2021/06/05 04:25:04;;;;;;;28.45;13.25;;;15.70;99.90;;;;;;5096186;28;20189;-84
2021/06/05 04:27:30;;;;;;;26.35;13.52;;;15.70;99.90;;;;;;5113602;28;20186;-84
2021/06/05 04:29:56;;;;;;;21.95;12.57;;;15.70;99.90;;;;;;5113395;28;20264;-85
2021/06/05 04:32:22;;;;;;;21.35;11.43;;;15.70;99.90;;;;;;5112304;28;20186;-85
2021/06/05 04:34:47;;;;;;;17.85;10.32;;;15.80;99.90;;;;;;5113977;28;20178;-84
2021/06/05 04:37:13;;;;;;;20.42;9.02;;;15.80;99.90;;;;;;5119444;27;20209;-85
2021/06/05 04:39:40;;;;;;;20.73;9.00;;;16.00;99.90;;;;;;5113426;28;20192;-85
2021/06/05 04:42:07;;;;;;;10.55;7.15;;;16.10;99.90;;;;;;5113485;28;20184;-85
2021/06/05 04:44:33;;;;;;;12.95;7.65;;;16.20;99.90;;;;;;5112887;28;20173;-85
2021/06/05 04:46:58;;;;;;;12.98;7.38;;;16.30;99.90;;;;;;5090651;28;20197;-85
2021/06/05 04:49:24;;;;;;;12.00;7.10;;;16.40;99.90;;;;;;5097861;28;20183;-84
2021/06/05 04:51:50;;;;;;;14.32;7.10;;;16.50;99.90;;;;;;5113598;28;20190;-85
2021/06/05 04:54:15;;;;;;;11.82;7.07;;;16.60;99.90;;;;;;5112365;28;20189;-86
2021/06/05 04:56:47;;;;;;;11.38;6.80;;;16.70;99.90;;;;;;5111714;28;20205;-86
2021/06/05 04:59:14;;;;;;;13.02;7.53;;;16.80;99.90;;;;;;5113376;28;20223;-85
2021/06/05 05:01:40;;;;;;;11.07;6.22;;;16.80;99.90;;;;;;5111803;28;20170;-85
2021/06/05 05:04:07;;;;;;;12.63;5.95;;;17.00;99.90;;;;;;5113498;28;20174;-85
2021/06/05 05:06:33;;;;;;;10.25;6.70;;;17.10;99.90;;;;;;5111646;28;20216;-86
2021/06/05 05:08:59;;;;;;;11.93;6.88;;;17.20;99.90;;;;;;5096188;28;20297;-85
2021/06/05 05:11:25;;;;;;;13.25;6.85;;;17.30;99.90;;;;;;5113152;28;20659;-85
2021/06/05 05:13:51;;;;;;;12.52;6.80;;;17.50;99.90;;;;;;5113073;28;20627;-84
2021/06/05 05:16:18;;;;;;;14.45;7.10;;;17.60;99.90;;;;;;5113644;28;20292;-83
2021/06/05 05:18:46;;;;;;;10.65;6.35;;;17.70;99.90;;;;;;5112712;28;20170;-84
2021/06/05 05:21:14;;;;;;;15.30;6.68;;;17.70;99.90;;;;;;5111556;28;20182;-83
2021/06/05 05:23:40;;;;;;;12.93;6.75;;;17.80;99.90;;;;;;5112112;28;20170;-84
2021/06/05 05:26:08;;;;;;;11.27;6.43;;;17.90;99.90;;;;;;5112416;28;20185;-84
2021/06/05 05:28:34;;;;;;;11.10;6.30;;;18.00;99.90;;;;;;5114999;28;20634;-83
2021/06/05 05:31:03;;;;;;;14.38;7.13;;;18.00;99.90;;;;;;5115680;28;20261;-83
2021/06/05 05:33:29;;;;;;;10.60;6.20;;;18.00;99.90;;;;;;5113887;28;20174;-83
2021/06/05 05:35:57;;;;;;;9.40;7.22;;;18.10;99.90;;;;;;5111341;28;20212;-84
2021/06/05 05:38:23;;;;;;;14.35;6.78;;;18.10;99.90;;;;;;5111139;28;20577;-85
2021/06/05 05:40:50;;;;;;;11.13;5.97;;;18.20;99.90;;;;;;5111105;28;20232;-85
2021/06/05 05:43:16;;;;;;;12.50;5.82;;;18.20;99.90;;;;;;5111735;28;20680;-86
2021/06/05 05:45:42;;;;;;;16.25;6.63;;;18.20;99.90;;;;;;5095047;28;20246;-85
2021/06/05 05:48:10;;;;;;;11.18;6.90;;;18.20;99.90;;;;;;5110920;28;20635;-86
2021/06/05 05:50:38;;;;;;;13.35;7.13;;;18.20;99.90;;;;;;5110246;28;20642;-86
2021/06/05 05:53:05;;;;;;;17.60;7.10;;;18.20;99.90;;;;;;5111090;28;20177;-86
2021/06/05 05:55:30;;;;;;;10.07;6.55;;;18.30;99.90;;;;;;5111437;28;20204;-85
2021/06/05 05:58:02;;;;;;;9.88;6.88;;;18.40;99.90;;;;;;5110831;28;20182;-86
2021/06/05 06:00:31;;;;;;;10.05;6.78;;;18.40;99.90;;;;;;5110634;28;20223;-86
2021/06/05 06:02:57;;;;;;;12.77;6.63;;;18.40;99.90;;;;;;5111011;28;20207;-86
2021/06/05 06:05:23;;;;;;;11.10;7.00;;;18.50;99.90;;;;;;5111993;28;20556;-83
2021/06/05 06:07:49;;;;;;;12.32;7.22;;;;;;;;;;5111764;28;20610;-85
2021/06/05 06:10:17;;;;;;;14.25;7.28;;;18.80;99.90;;;;;;5112397;28;20624;-84
2021/06/05 06:12:43;;;;;;;19.13;8.88;;;18.90;99.90;;;;;;5111051;28;20225;-84
2021/06/05 06:15:13;;;;;;;14.13;7.53;;;19.00;99.90;;;;;;5117876;28;20236;-83
2021/06/05 06:17:40;;;;;;;20.13;8.60;;;19.10;99.90;;;;;;5130230;27;20179;-84
2021/06/05 06:20:11;;;;;;;10.73;6.93;;;19.20;99.90;;;;;;5087607;28;20205;-83
2021/06/05 06:22:37;;;;;;;16.15;7.50;;;19.30;99.90;;;;;;5106392;28;20226;-85
2021/06/05 06:25:07;;;;;;;19.95;7.05;;;19.40;99.90;;;;;;5085759;28;20576;-83
2021/06/05 06:27:34;;;;;;;10.23;6.47;;;19.50;99.90;;;;;;5095713;28;20746;-83
2021/06/05 06:29:59;;;;;;;14.15;6.80;;;19.60;99.90;;;;;;5102858;28;20187;-84
2021/06/05 06:32:25;;;;;;;11.98;6.72;;;19.60;99.90;;;;;;5091649;28;20247;-83
2021/06/05 06:34:52;;;;;;;9.43;6.28;;;19.60;99.90;;;;;;5106790;28;20182;-85
2021/06/05 06:37:17;;;;;;;12.32;6.47;;;19.60;99.90;;;;;;5107939;28;20292;-84
2021/06/05 06:39:43;;;;;;;14.90;6.40;;;19.50;99.90;;;;;;5113710;28;20269;-84
2021/06/05 06:42:09;;;;;;;13.00;6.18;;;19.60;99.90;;;;;;5090880;28;20200;-84
2021/06/05 06:44:35;;;;;;;9.88;6.00;;;19.50;99.90;;;;;;5100660;28;20182;-84
2021/06/05 06:47:01;;;;;;;10.35;6.80;;;19.50;99.90;;;;;;5111103;27;20194;-83
2021/06/05 06:49:26;;;;;;;10.30;6.25;;;19.40;99.90;;;;;;5110016;27;20178;-82
2021/06/05 06:51:52;;;;;;;9.70;6.95;;;19.40;99.90;;;;;;5109357;27;20269;-83
2021/06/05 06:54:18;;;;;;;11.15;6.65;;;19.40;99.90;;;;;;5108810;27;20860;-82
2021/06/05 06:56:45;;;;;;;15.80;7.00;;;19.30;99.90;;;;;;5102800;27;20213;-83
2021/06/05 06:59:11;;;;;;;11.13;7.35;;;19.20;99.90;;;;;;5107602;28;20193;-83
2021/06/05 07:01:37;;;;;;;19.95;7.53;;;19.10;99.90;;;;;;5091354;28;20186;-83
2021/06/05 07:04:04;;;;;;;11.93;6.95;;;19.10;99.90;;;;;;5111622;28;20181;-83
2021/06/05 07:06:29;;;;;;;24.45;8.60;;;19.00;99.90;;;;;;5112204;27;20185;-83
2021/06/05 07:08:58;;;;;;;15.00;7.15;;;18.90;99.90;;;;;;5109015;28;20674;-83
2021/06/05 07:11:30;;;;;;;10.52;7.35;;;18.90;99.90;;;;;;5097977;28;20261;-83
2021/06/05 07:13:57;;;;;;;12.98;7.05;;;18.80;99.90;;;;;;5108757;28;20201;-82
2021/06/05 07:16:24;;;;;;;37.83;7.25;;;18.80;99.90;;;;;;5099485;28;20233;-82
2021/06/05 07:18:50;;;;;;;15.80;7.40;;;18.70;99.90;;;;;;5112878;28;20218;-83
2021/06/05 07:21:17;;;;;;;9.32;7.57;;;18.60;99.90;;;;;;5112857;28;20217;-86
2021/06/05 07:23:44;;;;;;;17.50;7.10;;;18.60;99.90;;;;;;5113361;27;20182;-82
2021/06/05 07:26:17;;;;;;;19.27;7.88;;;18.60;99.90;;;;;;5100483;28;20714;-85
2021/06/05 07:28:48;;;;;;;11.48;7.88;;;18.50;99.90;;;;;;5106286;28;20192;-83
2021/06/05 07:31:19;;;;;;;15.90;8.25;;;18.50;99.90;;;;;;5110619;28;20208;-83
2021/06/05 07:33:45;;;;;;;240.68;18.48;;;18.50;99.90;;;;;;5112406;28;20839;-82
2021/06/05 07:36:19;;;;;;;33.90;9.40;;;18.40;99.90;;;;;;5110466;28;20198;-82
2021/06/05 07:38:45;;;;;;;13.95;7.53;;;18.40;99.90;;;;;;5092699;28;20274;-83
2021/06/05 07:41:11;;;;;;;17.20;8.15;;;18.40;99.90;;;;;;5105674;28;20705;-83
2021/06/05 07:43:38;;;;;;;17.50;7.47;;;18.40;99.90;;;;;;5104346;28;20186;-82
2021/06/05 07:46:04;;;;;;;19.85;7.57;;;18.30;99.90;;;;;;5109365;28;20186;-83
2021/06/05 07:48:30;;;;;;;20.58;8.10;;;18.30;99.90;;;;;;5102927;28;20185;-83
2021/06/05 07:50:57;;;;;;;11.80;7.68;;;18.30;99.90;;;;;;5103655;28;20190;-82
2021/06/05 07:53:22;;;;;;;14.00;7.85;;;18.30;99.90;;;;;;5110654;28;20203;-84
2021/06/05 07:55:49;;;;;;;12.38;8.30;;;18.30;99.90;;;;;;5101405;28;20209;-84
2021/06/05 07:58:15;;;;;;;18.40;8.05;;;19.20;99.90;;;;;;5114478;27;20239;-85
2021/06/05 08:00:41;;;;;;;15.57;7.55;;;18.40;99.90;;;;;;5114146;28;20201;-83
2021/06/05 08:03:08;;;;;;;13.93;7.90;;;18.40;99.90;;;;;;5092591;28;20210;-83
2021/06/05 08:05:35;;;;;;;17.08;8.10;;;18.40;99.90;;;;;;5128057;27;20280;-83
2021/06/05 08:08:01;;;;;;;14.55;7.63;;;18.40;99.90;;;;;;5113757;28;20178;-84
2021/06/05 08:10:27;;;;;;;31.05;9.13;;;18.40;99.90;;;;;;5112165;28;20596;-82
2021/06/05 08:12:53;;;;;;;21.23;8.25;;;18.40;99.90;;;;;;5101298;28;20705;-81
2021/06/05 08:15:25;;;;;;;16.20;8.80;;;18.40;99.90;;;;;;5109799;28;20182;-82
2021/06/05 08:17:51;;;;;;;13.32;8.05;;;18.50;99.90;;;;;;5108648;28;20748;-83
2021/06/05 08:20:22;;;;;;;13.27;8.48;;;18.60;99.90;;;;;;5113299;28;20193;-83
2021/06/05 08:22:47;;;;;;;10.57;7.68;;;18.60;99.90;;;;;;5108666;28;20298;-82
2021/06/05 08:25:13;;;;;;;14.48;8.25;;;18.70;99.90;;;;;;5092780;28;20273;-82
2021/06/05 08:27:39;;;;;;;9.35;6.70;;;18.80;99.90;;;;;;5109375;28;20182;-82
2021/06/05 08:30:11;;;;;;;11.27;6.80;;;18.90;99.90;;;;;;5102759;28;20873;-83
2021/06/05 08:32:36;;;;;;;12.98;7.47;;;18.90;99.90;;;;;;5113234;28;20661;-83
2021/06/05 08:35:03;;;;;;;8.63;6.65;;;18.90;99.90;;;;;;5111530;28;20224;-82
2021/06/05 08:37:28;;;;;;;12.00;6.95;;;19.00;99.90;;;;;;5101443;28;20283;-83
2021/06/05 08:39:54;;;;;;;15.80;7.28;;;18.90;99.90;;;;;;5092945;28;20638;-82
2021/06/05 08:42:47;;;;;;;13.52;6.40;;;18.90;99.90;;;;;;5093174;28;20812;-83
2021/06/05 08:45:16;;;;;;;8.95;6.05;;;18.80;99.90;;;;;;5104600;28;20654;-82
2021/06/05 08:47:41;;;;;;;10.23;6.18;;;18.80;99.90;;;;;;5104165;28;20293;-82
2021/06/05 08:50:25;;;;;;;10.88;5.57;;;18.80;99.90;;;;;;5090626;28;20273;-82
2021/06/05 08:53:06;;;;;;;12.07;5.63;;;18.80;99.90;;;;;;5110276;28;20182;-83
2021/06/05 08:55:52;;;;;;;10.27;5.50;;;18.80;99.90;;;;;;5120836;27;20268;-82
2021/06/05 08:58:29;;;;;;;14.45;5.50;;;18.80;99.90;;;;;;5111274;27;20686;-83
2021/06/05 09:01:16;;;;;;;9.02;6.03;;;18.90;99.90;;;;;;5103035;28;20185;-83
2021/06/05 09:03:42;;;;;;;14.63;5.70;;;18.80;99.90;;;;;;5104548;28;20525;-83
2021/06/05 09:06:17;;;;;;;13.63;6.20;;;18.80;99.90;;;;;;5107246;28;20182;-83
2021/06/05 09:08:43;;;;;;;16.95;7.70;;;18.90;99.90;;;;;;5109054;28;20664;-84
2021/06/05 09:11:10;;;;;;;11.82;6.68;;;19.00;99.90;;;;;;5107136;28;20329;-84
2021/06/05 09:13:38;;;;;;;10.32;7.07;;;18.90;99.90;;;;;;5107216;28;20232;-84
2021/06/05 09:16:23;;;;;;;15.85;7.75;;;18.90;99.90;;;;;;5107346;28;20202;-82
2021/06/05 09:19:01;;;;;;;21.77;7.35;;;18.90;99.90;;;;;;5109226;28;20173;-84
2021/06/05 09:21:34;;;;;;;18.67;7.45;;;18.90;99.90;;;;;;5107203;28;20216;-83
2021/06/05 09:24:29;;;;;;;13.63;6.82;;;18.80;99.90;;;;;;5097700;28;20210;-82
2021/06/05 09:27:13;;;;;;;11.00;7.75;;;18.90;99.90;;;;;;5101730;28;20242;-83
2021/06/05 09:30:09;;;;;;;9.90;6.90;;;18.80;99.90;;;;;;5107977;28;20177;-84
2021/06/05 09:32:54;;;;;;;64.15;31.80;;;18.90;99.90;;;;;;5109768;28;20196;-84
2021/06/05 09:35:26;;;;;;;25.42;10.15;;;18.80;99.90;;;;;;5102805;28;20176;-83
2021/06/05 09:37:54;;;;;;;14.00;7.18;;;18.90;99.90;;;;;;5094763;27;20554;-85
2021/06/05 09:40:20;;;;;;;24.27;15.63;;;18.90;99.90;;;;;;5111161;28;20213;-85
2021/06/05 09:42:50;;;;;;;15.10;8.00;;;19.00;99.90;;;;;;5110414;28;20545;-83
2021/06/05 09:45:44;;;;;;;26.17;15.73;;;19.00;99.90;;;;;;5103511;28;20185;-84
2021/06/05 09:48:15;;;;;;;15.27;9.15;;;19.00;99.90;;;;;;5097438;28;20185;-83
2021/06/05 09:50:42;;;;;;;55.10;24.73;;;19.00;99.90;;;;;;5108479;28;20192;-84
2021/06/05 09:53:17;;;;;;;14.68;8.75;;;19.10;99.90;;;;;;5111777;28;20547;-84
2021/06/05 09:55:44;;;;;;;13.63;7.97;;;19.00;99.90;;;;;;5111062;28;20611;-84
2021/06/05 09:58:31;;;;;;;21.17;8.07;;;19.00;99.90;;;;;;5111654;28;20323;-83
2021/06/05 10:01:13;;;;;;;12.05;7.28;;;19.00;99.90;;;;;;5111881;28;20169;-85
2021/06/05 10:03:38;;;;;;;12.23;8.32;;;19.00;99.90;;;;;;5112161;28;20184;-83
2021/06/05 10:06:51;;;;;;;24.77;11.15;;;19.10;99.90;;;;;;5111834;28;20189;-84
2021/06/05 10:09:25;;;;;;;12.23;7.15;;;19.10;99.90;;;;;;5048849;28;20179;-83
2021/06/05 10:12:18;;;;;;;18.05;8.57;;;19.10;99.90;;;;;;5104504;28;20232;-84
2021/06/05 10:14:54;;;;;;;11.32;7.65;;;19.10;99.90;;;;;;5110676;28;20181;-84
2021/06/05 10:17:24;;;;;;;10.65;7.40;;;19.10;99.90;;;;;;5110273;28;20216;-85
2021/06/05 10:19:57;;;;;;;14.48;7.78;;;19.10;99.90;;;;;;5109498;28;20186;-85
2021/06/05 10:22:25;;;;;;;17.10;8.30;;;19.10;99.90;;;;;;5111049;28;20178;-85
2021/06/05 10:25:17;;;;;;;20.00;11.68;;;19.10;99.90;;;;;;5102992;28;20261;-84
2021/06/05 10:27:45;;;;;;;12.88;9.65;;;19.20;99.90;;;;;;5072245;28;20281;-85
2021/06/05 10:30:29;;;;;;;11.02;7.47;;;19.30;99.90;;;;;;5108410;28;21091;-85
2021/06/05 10:32:58;;;;;;;21.20;7.57;;;19.30;99.90;;;;;;5114792;28;20184;-85
2021/06/05 10:35:30;;;;;;;11.77;6.78;;;19.30;99.90;;;;;;5116409;28;20626;-84
2021/06/05 10:38:19;;;;;;;11.55;7.22;;;19.30;99.90;;;;;;5115778;28;20618;-85
2021/06/05 10:40:47;;;;;;;14.52;9.13;;;19.30;99.90;;;;;;5108443;28;20189;-84
2021/06/05 10:43:15;;;;;;;16.13;11.27;;;19.40;99.90;;;;;;5116337;28;20201;-84
2021/06/05 10:45:44;;;;;;;50.00;28.02;;;19.40;99.90;;;;;;5116686;28;20174;-84
2021/06/05 10:48:32;;;;;;;29.73;17.33;;;19.50;99.90;;;;;;5115855;27;20181;-86
2021/06/05 10:51:03;;;;;;;24.00;10.85;;;19.50;99.90;;;;;;5116341;28;20162;-84
2021/06/05 10:53:43;;;;;;;10.00;5.95;;;19.50;99.90;;;;;;5116228;28;20178;-85
2021/06/05 10:56:29;;;;;;;10.02;6.35;;;19.50;99.90;;;;;;5117192;28;20653;-85
2021/06/05 10:58:55;;;;;;;10.75;6.15;;;19.50;99.90;;;;;;5117685;28;20178;-84
2021/06/05 11:01:21;;;;;;;35.05;7.75;;;19.50;99.90;;;;;;5121834;28;20174;-83
2021/06/05 11:03:50;;;;;;;7.55;5.72;;;19.50;99.90;;;;;;5130895;28;20195;-84
2021/06/05 11:06:22;;;;;;;5.78;4.95;;;19.60;99.90;;;;;;5130832;28;20173;-84
2021/06/05 11:08:49;;;;;;;9.13;5.78;;;19.70;99.90;;;;;;5121079;28;20166;-84
2021/06/05 11:11:38;;;;;;;13.00;6.07;;;19.60;99.90;;;;;;5117184;28;20225;-84
2021/06/05 11:14:07;;;;;;;9.82;6.35;;;19.50;99.90;;;;;;5117260;28;20169;-83
2021/06/05 11:16:57;;;;;;;9.23;5.90;;;19.50;99.90;;;;;;5117233;28;20297;-84
2021/06/05 11:19:43;;;;;;;11.05;6.15;;;19.50;99.90;;;;;;5115487;28;20268;-85
2021/06/05 11:22:16;;;;;;;19.13;7.43;;;19.50;99.90;;;;;;5116595;28;20518;-85
2021/06/05 11:24:45;;;;;;;9.95;6.10;;;19.60;99.90;;;;;;5116945;28;20183;-84
2021/06/05 11:27:31;;;;;;;7.93;6.10;;;19.70;99.90;;;;;;5116623;28;20256;-85
2021/06/05 11:29:59;;;;;;;10.65;5.57;;;19.70;99.90;;;;;;5115594;28;20178;-85
2021/06/05 11:32:32;;;;;;;14.68;6.78;;;19.70;99.90;;;;;;5115254;28;20262;-85
2021/06/05 11:35:01;;;;;;;7.57;6.10;;;19.80;99.90;;;;;;5115567;28;20173;-84
2021/06/05 11:37:33;;;;;;;8.65;5.68;;;19.80;99.90;;;;;;5116450;28;20197;-84
2021/06/05 11:40:08;;;;;;;13.35;6.72;;;19.90;99.90;;;;;;5116473;28;20182;-84
2021/06/05 11:42:36;;;;;;;10.68;7.45;;;19.90;99.90;;;;;;5116384;28;20174;-84
2021/06/05 11:45:02;;;;;;;10.55;5.82;;;20.00;99.90;;;;;;5115038;28;20181;-85
2021/06/05 11:47:36;;;;;;;13.60;6.30;;;20.20;99.90;;;;;;5116137;28;20526;-83
2021/06/05 11:50:10;;;;;;;11.18;6.35;;;20.40;99.90;;;;;;5115041;28;20174;-83
2021/06/05 11:52:38;;;;;;;10.38;5.65;;;20.60;99.90;;;;;;5116268;28;20638;-84
2021/06/05 11:55:10;;;;;;;7.03;5.43;;;20.70;99.90;;;;;;5114729;28;20625;-84
2021/06/05 11:57:38;;;;;;;55.35;6.75;;;21.00;99.90;;;;;;5116346;28;20197;-83
2021/06/05 12:00:10;;;;;;;84.43;9.18;;;21.20;99.90;;;;;;5115764;28;20254;-84
2021/06/05 12:02:38;;;;;;;14.75;5.60;;;21.40;99.90;;;;;;5114873;28;20242;-83
2021/06/05 12:05:20;;;;;;;11.23;4.97;;;21.50;99.90;;;;;;5114431;28;20182;-86
2021/06/05 12:07:47;;;;;;;10.13;4.50;;;21.50;99.90;;;;;;5115967;28;20154;-84
2021/06/05 12:10:35;;;;;;;8.15;4.57;;;21.60;99.90;;;;;;5114753;28;20192;-84
2021/06/05 12:13:02;;;;;;;6.50;4.40;;;21.80;99.90;;;;;;5115617;28;20302;-83
2021/06/05 12:15:39;;;;;;;5.45;3.88;;;21.90;99.90;;;;;;5115373;28;20173;-83
2021/06/05 12:18:21;;;;;;;9.55;4.53;;;22.10;99.90;;;;;;5115128;28;20228;-85
2021/06/05 12:20:49;;;;;;;4.53;3.80;;;22.30;99.90;;;;;;5114432;28;20185;-83
2021/06/05 12:23:41;;;;;;;9.00;4.18;;;22.50;99.90;;;;;;5114728;28;20197;-84
2021/06/05 12:26:27;;;;;;;8.32;4.15;;;22.60;99.90;;;;;;5112281;28;20285;-87
2021/06/05 12:29:08;;;;;;;11.50;4.72;;;22.80;99.90;;;;;;5113581;28;20193;-84
2021/06/05 12:31:40;;;;;;;13.23;4.45;;;22.90;99.90;;;;;;5113533;28;20196;-84
2021/06/05 12:34:37;;;;;;;4.47;3.38;;;23.00;99.70;;;;;;5111173;28;20612;-86
2021/06/05 12:37:16;;;;;;;4.78;3.60;;;23.20;99.90;;;;;;5114319;28;20222;-85
2021/06/05 12:39:44;;;;;;;7.20;4.00;;;23.00;96.00;;;;;;5113438;28;20273;-85
2021/06/05 12:42:13;;;;;;;9.35;4.28;;;22.90;96.50;;;;;;5112602;28;20209;-85
2021/06/05 12:44:42;;;;;;;8.77;5.20;;;23.00;99.30;;;;;;5112010;28;20178;-85
2021/06/05 12:47:12;;;;;;;12.10;9.52;;;23.10;97.80;;;;;;5112759;28;20236;-87
2021/06/05 12:49:38;;;;;;;8.13;5.65;;;23.00;98.20;;;;;;5111559;28;20177;-85
2021/06/05 12:52:12;;;;;;;6.63;4.75;;;23.00;98.60;;;;;;5113775;28;20272;-85